createdAt,value
2023-03-30T00:06:04.686Z,100306.73
2023-03-30T00:08:47.546Z,100300.58
2023-03-30T00:23:06.365Z,100295.98
2023-03-30T00:25:51.722Z,100297.70
2023-03-30T00:29:30.179Z,100295.57
2023-03-30T00:43:56.209Z,100280.35
2023-03-30T00:46:36.053Z,100270.89
2023-03-30T00:50:21.945Z,100271.13
2023-03-30T00:54:12.880Z,100268.56
2023-03-30T00:57:55.104Z,100268.14
2023-03-30T01:01:39.562Z,100254.02
2023-03-30T01:05:11.951Z,100251.30
2023-03-30T01:08:54.340Z,100247.39
2023-03-30T01:12:37.814Z,100244.41
2023-03-30T01:16:21.017Z,100238.13
2023-03-30T01:20:22.596Z,100235.02
2023-03-30T01:35:01.777Z,100229.39
2023-03-30T01:38:13.599Z,100231.33
2023-03-30T01:42:15.285Z,100243.63
2023-03-30T01:46:50.979Z,100243.61
2023-03-30T01:49:43.854Z,100238.04
2023-03-30T01:53:54.650Z,100234.69
2023-03-30T01:57:33.503Z,100230.27
2023-03-30T02:00:43.729Z,100230.14
2023-03-30T02:04:20.097Z,100224.61
2023-03-30T02:08:06.046Z,100218.97
2023-03-30T02:11:51.390Z,100214.35
2023-03-30T02:15:38.740Z,100212.52
2023-03-30T02:19:06.534Z,100204.45
2023-03-30T02:22:44.795Z,100202.15
2023-03-30T02:26:25.451Z,100205.52
2023-03-30T02:30:07.800Z,100205.91
2023-03-30T02:33:59.247Z,100207.17
2023-03-30T02:38:06.483Z,100205.88
2023-03-30T02:42:10.857Z,100195.97
2023-03-30T02:45:18.468Z,100195.66
2023-03-30T02:48:48.967Z,100188.77
2023-03-30T02:52:39.716Z,100189.81
2023-03-30T02:56:09.123Z,100190.52
2023-03-30T03:00:10.738Z,100182.09
2023-03-30T03:03:43.441Z,100178.18
2023-03-30T03:07:25.171Z,100178.00
2023-03-30T03:10:39.112Z,100178.91
2023-03-30T03:14:26.639Z,100175.29
2023-03-30T03:17:58.672Z,100171.70
2023-03-30T03:21:48.196Z,100163.36
2023-03-30T03:25:18.169Z,100161.39
2023-03-30T03:28:56.238Z,100163.98
2023-03-30T03:32:51.796Z,100156.44
2023-03-30T03:36:45.337Z,100149.54
2023-03-30T03:40:27.486Z,100149.34
2023-03-30T03:44:01.679Z,100146.15
2023-03-30T03:47:42.598Z,100149.36
2023-03-30T03:51:19.651Z,100144.95
2023-03-30T03:55:08.392Z,100142.66
2023-03-30T03:58:37.960Z,100136.34
2023-03-30T04:02:33.997Z,100136.80
2023-03-30T04:06:11.489Z,100134.73
2023-03-30T04:10:04.499Z,100130.55
2023-03-30T04:23:40.537Z,100121.58
2023-03-30T04:26:28.596Z,100119.33
2023-03-30T04:30:11.610Z,100114.33
2023-03-30T04:33:52.126Z,100114.73
2023-03-30T04:37:30.184Z,100117.52
2023-03-30T04:51:37.783Z,100105.86
2023-03-30T04:54:25.704Z,100102.56
2023-03-30T04:58:11.384Z,100099.84
2023-03-30T05:01:59.131Z,100100.41
2023-03-30T05:05:18.296Z,100099.77
2023-03-30T05:09:00.937Z,100097.40
2023-03-30T05:12:49.874Z,100093.94
2023-03-30T05:16:14.833Z,100094.59
2023-03-30T05:19:53.742Z,100092.31
2023-03-30T05:23:30.706Z,100091.64
2023-03-30T05:25:59.924Z,100089.85
2023-03-30T05:28:31.091Z,100089.42
2023-03-30T05:31:00.673Z,100084.55
2023-03-30T05:33:30.140Z,100084.83
2023-03-30T05:37:24.783Z,100078.52
2023-03-30T05:51:28.139Z,100076.27
2023-03-30T06:04:44.823Z,100074.69
2023-03-30T06:18:18.194Z,100069.15
2023-03-30T06:20:48.704Z,100064.29
2023-03-30T06:23:16.082Z,100070.41
2023-03-30T06:25:52.215Z,100069.27
2023-03-30T06:28:19.806Z,100069.65
2023-03-30T06:30:48.394Z,100068.95
2023-03-30T06:33:16.138Z,100063.01
2023-03-30T06:35:51.682Z,100062.90
2023-03-30T06:38:20.847Z,100061.19
2023-03-30T06:40:48.246Z,100062.94
2023-03-30T06:43:17.456Z,100062.59
2023-03-30T06:45:50.456Z,100065.08
2023-03-30T06:48:19.506Z,100064.45
2023-03-30T06:50:48.272Z,100064.89
2023-03-30T06:53:15.468Z,100066.23
2023-03-30T06:55:42.325Z,100061.98
2023-03-30T06:58:09.219Z,100059.36
2023-03-30T07:00:36.682Z,100062.14
2023-03-30T07:03:06.027Z,100055.30
2023-03-30T07:05:32.876Z,100057.64
2023-03-30T07:08:00.198Z,100061.44
2023-03-30T07:10:26.670Z,100055.63
2023-03-30T07:12:54.595Z,100054.16
2023-03-30T07:19:28.125Z,100056.25
2023-03-30T07:21:55.549Z,100059.84
2023-03-30T07:24:22.058Z,100053.60
2023-03-30T07:26:48.632Z,100044.47
2023-03-30T07:29:15.366Z,100044.77
2023-03-30T07:31:42.121Z,100043.80
2023-03-30T07:34:10.230Z,100045.83
2023-03-30T07:36:36.937Z,100046.58
2023-03-30T07:39:03.689Z,100044.20
2023-03-30T07:41:35.374Z,100042.73
2023-03-30T07:44:01.947Z,100051.52
2023-03-30T07:46:28.867Z,100057.47
2023-03-30T07:48:57.123Z,100048.66
2023-03-30T07:51:24.799Z,100041.27
2023-03-30T07:58:07.095Z,100045.10
2023-03-30T08:00:34.197Z,100034.71
2023-03-30T08:03:01.645Z,100037.98
2023-03-30T08:05:31.435Z,100036.87
2023-03-30T08:07:58.274Z,100039.42
2023-03-30T08:10:25.302Z,100032.49
2023-03-30T08:12:51.869Z,100036.50
2023-03-30T08:15:36.239Z,100031.86
2023-03-30T08:18:18.915Z,100033.23
2023-03-30T08:21:52.889Z,100026.83
2023-03-30T08:25:37.229Z,100017.77
2023-03-30T08:29:08.534Z,100019.61
2023-03-30T08:31:37.728Z,100017.19
2023-03-30T08:34:08.108Z,100018.14
2023-03-30T08:36:39.768Z,100017.60
2023-03-30T08:39:07.887Z,100015.16
2023-03-30T08:41:43.878Z,100010.51
2023-03-30T08:44:21.355Z,100008.02
2023-03-30T08:46:50.823Z,100002.15
2023-03-30T08:49:21.135Z,100004.70
2023-03-30T08:51:52.344Z,100007.13
2023-03-30T08:54:25.902Z,100001.59
2023-03-30T08:57:11.798Z,100005.66
2023-03-30T09:00:10.663Z,99996.22
2023-03-30T09:02:46.455Z,99987.91
2023-03-30T09:05:14.488Z,99991.16
2023-03-30T09:07:52.896Z,99984.05
2023-03-30T09:10:23.195Z,99976.88
2023-03-30T09:13:07.483Z,99975.66
2023-03-30T09:15:52.625Z,99974.79
2023-03-30T09:18:33.479Z,99967.50
2023-03-30T09:21:04.317Z,99959.34
2023-03-30T09:23:34.368Z,99963.64
2023-03-30T09:26:23.809Z,99961.29
2023-03-30T09:29:14.597Z,99949.98
2023-03-30T09:31:52.205Z,99944.70
2023-03-30T09:34:54.677Z,99937.88
2023-03-30T09:37:22.767Z,99935.30
2023-03-30T09:39:51.038Z,99932.86
2023-03-30T09:42:29.061Z,99928.94
2023-03-30T09:45:07.918Z,99928.98
2023-03-30T09:47:42.463Z,99928.00
2023-03-30T09:50:28.997Z,99928.89
2023-03-30T09:53:02.496Z,99925.25
2023-03-30T09:55:33.034Z,99920.15
2023-03-30T09:58:26.681Z,99916.86
2023-03-30T10:01:12.785Z,99915.15
2023-03-30T10:03:44.008Z,99915.13
2023-03-30T10:06:17.359Z,99913.93
2023-03-30T10:08:55.088Z,99909.86
2023-03-30T10:11:42.503Z,99909.11
2023-03-30T10:14:22.325Z,99910.27
2023-03-30T10:16:50.267Z,99905.30
2023-03-30T10:19:22.447Z,99899.91
2023-03-30T10:21:55.144Z,99896.91
2023-03-30T10:24:24.750Z,99890.67
2023-03-30T10:26:58.075Z,99883.80
2023-03-30T10:29:29.088Z,99880.34
2023-03-30T10:32:14.716Z,99881.45
2023-03-30T10:34:45.612Z,99876.16
2023-03-30T10:40:35.658Z,99872.95
2023-03-30T11:03:08.619Z,99850.67
2023-03-30T11:06:27.962Z,99840.64
2023-03-30T11:20:27.676Z,99826.48
2023-03-30T11:23:36.731Z,99824.05
2023-03-30T11:27:24.359Z,99823.20
2023-03-30T11:30:30.018Z,99819.77
2023-03-30T11:44:33.138Z,99789.32
2023-03-30T11:47:14.151Z,99780.39
2023-03-30T11:50:07.627Z,99782.27
2023-03-30T11:52:57.068Z,99768.08
2023-03-30T11:55:46.049Z,99764.27
2023-03-30T11:58:38.311Z,99756.99
2023-03-30T12:01:31.006Z,99756.54
2023-03-30T12:04:45.465Z,99756.02
2023-03-30T12:07:22.876Z,99754.77
2023-03-30T12:09:56.415Z,99750.88
2023-03-30T12:12:32.973Z,99741.46
2023-03-30T12:15:03.850Z,99738.15
2023-03-30T12:17:49.362Z,99731.11
2023-03-30T12:21:12.184Z,99731.16
2023-03-30T12:24:00.623Z,99732.32
2023-03-30T12:26:34.889Z,99732.21
2023-03-30T12:32:03.226Z,99715.20
2023-03-30T12:34:37.785Z,99716.05
2023-03-30T12:37:18.358Z,99717.36
2023-03-30T12:40:06.741Z,99709.33
2023-03-30T12:42:39.736Z,99708.25
2023-03-30T12:45:15.417Z,99701.27
2023-03-30T12:47:53.501Z,99694.10
2023-03-30T12:50:58.457Z,99688.69
2023-03-30T12:53:49.245Z,99683.97
2023-03-30T12:56:48.508Z,99680.98
2023-03-30T12:59:36.584Z,99687.73
2023-03-30T13:02:32.347Z,99685.77
2023-03-30T13:05:00.652Z,99688.92
2023-03-30T13:07:35.134Z,99686.42
2023-03-30T13:10:31.960Z,99686.42
2023-03-30T13:13:07.300Z,99682.45
2023-03-30T13:15:46.834Z,99683.02
2023-03-30T13:18:19.508Z,99680.59
2023-03-30T13:20:48.217Z,99679.66
2023-03-30T13:23:42.307Z,99668.49
2023-03-30T13:26:34.915Z,99669.42
2023-03-30T13:29:11.487Z,99670.14
2023-03-30T13:32:05.285Z,99671.77
2023-03-30T13:35:05.443Z,99662.36
2023-03-30T13:37:59.129Z,99648.71
2023-03-30T13:40:42.016Z,99643.25
2023-03-30T13:43:55.223Z,99636.70
2023-03-30T13:46:54.079Z,99633.37
2023-03-30T14:02:56.659Z,99619.93
2023-03-30T14:06:13.873Z,99615.57
2023-03-30T14:08:50.474Z,99611.27
2023-03-30T14:11:38.602Z,99610.35
2023-03-30T14:14:06.161Z,99608.89
2023-03-30T14:16:39.999Z,99606.71
2023-03-30T14:19:27.996Z,99601.20
2023-03-30T14:22:23.325Z,99597.21
2023-03-30T14:26:01.600Z,99583.60
2023-03-30T14:28:35.156Z,99580.55
2023-03-30T14:31:18.231Z,99576.70
2023-03-30T14:33:46.848Z,99578.59
2023-03-30T14:36:18.351Z,99580.35
2023-03-30T14:38:49.660Z,99575.52
2023-03-30T14:41:24.330Z,99570.98
2023-03-30T14:44:06.692Z,99569.20
2023-03-30T14:46:49.818Z,99563.73
2023-03-30T14:49:22.419Z,99567.87
2023-03-30T14:51:53.027Z,99560.73
2023-03-30T14:54:23.393Z,99559.63
2023-03-30T14:57:12.228Z,99562.20
2023-03-30T14:59:53.600Z,99552.63
2023-03-30T15:02:26.333Z,99554.64
2023-03-30T15:05:05.392Z,99554.21
2023-03-30T15:07:36.874Z,99555.29
2023-03-30T15:10:20.994Z,99555.88
2023-03-30T15:17:22.002Z,99549.12
2023-03-30T15:19:55.154Z,99543.13
2023-03-30T15:22:29.451Z,99541.04
2023-03-30T15:25:01.172Z,99537.67
2023-03-30T15:27:30.869Z,99535.69
2023-03-30T15:30:01.240Z,99536.80
2023-03-30T15:32:36.316Z,99535.56
2023-03-30T15:35:19.399Z,99527.30
2023-03-30T15:37:55.166Z,99524.02
2023-03-30T15:40:32.702Z,99520.17
2023-03-30T15:43:16.371Z,99519.15
2023-03-30T15:45:54.026Z,99515.60
2023-03-30T15:48:28.904Z,99509.42
2023-03-30T15:51:13.437Z,99506.34
2023-03-30T15:53:47.078Z,99497.34
2023-03-30T15:56:25.384Z,99488.60
2023-03-30T15:58:54.050Z,99482.58
2023-03-30T16:01:23.386Z,99477.81
2023-03-30T16:04:06.536Z,99472.84
2023-03-30T16:06:37.364Z,99474.29
2023-03-30T16:09:05.207Z,99474.13
2023-03-30T16:11:33.317Z,99471.20
2023-03-30T16:14:01.799Z,99469.98
2023-03-30T16:16:29.890Z,99470.39
2023-03-30T16:18:57.898Z,99463.30
2023-03-30T16:23:14.112Z,99460.08
2023-03-30T16:25:45.238Z,99450.84
2023-03-30T16:28:17.959Z,99447.00
2023-03-30T16:30:50.315Z,99440.41
2023-03-30T16:33:21.243Z,99436.10
2023-03-30T16:35:50.575Z,99437.95
2023-03-30T16:38:25.795Z,99442.65
2023-03-30T16:40:57.557Z,99443.27
2023-03-30T16:43:27.398Z,99443.65
2023-03-30T16:45:55.445Z,99435.59
2023-03-30T16:48:24.845Z,99431.14
2023-03-30T16:50:58.845Z,99422.98
2023-03-30T16:53:26.810Z,99422.69
2023-03-30T16:57:27.856Z,99416.66
2023-03-30T16:59:56.392Z,99421.30
2023-03-30T17:02:27.011Z,99426.39
2023-03-30T17:04:56.740Z,99417.35
2023-03-30T17:07:26.685Z,99410.55
2023-03-30T17:11:21.169Z,99408.42
2023-03-30T17:13:51.410Z,99405.56
2023-03-30T17:16:19.512Z,99407.96
2023-03-30T17:18:51.568Z,99400.27
2023-03-30T17:21:19.717Z,99395.55
2023-03-30T17:23:48.476Z,99392.97
2023-03-30T17:26:18.919Z,99394.45
2023-03-30T17:28:49.057Z,99389.16
2023-03-30T17:31:19.770Z,99391.02
2023-03-30T17:34:00.318Z,99381.59
2023-03-30T17:37:55.474Z,99380.82
2023-03-30T17:40:28.812Z,99375.41
2023-03-30T17:42:57.083Z,99375.61
2023-03-30T17:45:27.136Z,99385.00
2023-03-30T17:47:55.176Z,99381.63
2023-03-30T17:50:29.518Z,99384.07
2023-03-30T17:52:58.872Z,99380.90
2023-03-30T17:55:29.280Z,99382.49
2023-03-30T17:57:58.491Z,99378.77
2023-03-30T18:00:34.258Z,99378.08
2023-03-30T18:03:03.614Z,99381.25
2023-03-30T18:05:32.603Z,99386.28
2023-03-30T18:08:00.648Z,99389.86
2023-03-30T18:10:40.087Z,99384.98
2023-03-30T18:13:08.237Z,99378.56
2023-03-30T18:15:36.112Z,99376.70
2023-03-30T18:18:04.146Z,99375.58
2023-03-30T18:20:44.309Z,99375.66
2023-03-30T18:23:15.363Z,99380.27
2023-03-30T18:25:46.193Z,99370.59
2023-03-30T18:28:22.963Z,99363.90
2023-03-30T18:30:57.540Z,99356.38
2023-03-30T18:33:27.442Z,99348.05
2023-03-30T18:36:05.113Z,99343.70
2023-03-30T18:38:34.126Z,99348.11
2023-03-30T18:41:05.291Z,99347.79
2023-03-30T18:49:53.538Z,99330.47
2023-03-30T18:52:23.629Z,99332.58
2023-03-30T18:54:51.660Z,99327.86
2023-03-30T18:57:19.912Z,99327.74
2023-03-30T18:59:48.304Z,99333.27
2023-03-30T19:02:16.603Z,99334.89
2023-03-30T19:04:45.123Z,99337.61
2023-03-30T19:07:13.219Z,99332.26
2023-03-30T19:09:43.391Z,99329.61
2023-03-30T19:12:13.050Z,99333.66
2023-03-30T19:14:41.122Z,99333.96
2023-03-30T19:17:09.374Z,99332.44
2023-03-30T19:19:37.405Z,99332.79
2023-03-30T19:22:05.792Z,99333.02
2023-03-30T19:24:36.686Z,99331.31
2023-03-30T19:27:08.026Z,99326.58
2023-03-30T19:29:39.752Z,99326.70
2023-03-30T19:32:07.887Z,99323.71
2023-03-30T19:34:41.051Z,99323.20
2023-03-30T19:37:09.109Z,99317.63
2023-03-30T19:39:39.281Z,99310.67
2023-03-30T19:42:37.930Z,99309.51
2023-03-30T19:45:12.708Z,99308.96
2023-03-30T19:47:51.611Z,99308.56
2023-03-30T19:50:23.418Z,99314.37
2023-03-30T19:52:52.093Z,99309.57
2023-03-30T19:55:22.650Z,99306.16
2023-03-30T19:57:52.244Z,99301.06
2023-03-30T20:00:23.489Z,99298.76
2023-03-30T20:02:54.076Z,99299.92
2023-03-30T20:05:23.977Z,99291.64
2023-03-30T20:07:52.048Z,99285.96
2023-03-30T20:10:23.168Z,99279.77
2023-03-30T20:12:51.962Z,99280.87
2023-03-30T20:15:22.379Z,99281.06
2023-03-30T20:17:50.472Z,99274.83
2023-03-30T20:20:25.688Z,99275.38
2023-03-30T20:22:56.499Z,99271.58
2023-03-30T20:25:25.004Z,99265.56
2023-03-30T20:27:56.008Z,99259.52
2023-03-30T20:30:24.054Z,99258.58
2023-03-30T20:33:07.289Z,99258.83
2023-03-30T20:35:38.074Z,99254.45
2023-03-30T20:38:09.844Z,99259.92
2023-03-30T20:40:37.723Z,99253.06
2023-03-30T20:43:10.819Z,99248.02
2023-03-30T20:45:48.761Z,99250.27
2023-03-30T20:58:14.547Z,99243.71
2023-03-30T21:00:42.516Z,99240.65
2023-03-30T21:03:11.023Z,99236.61
2023-03-30T21:05:39.057Z,99234.90
2023-03-30T21:08:15.402Z,99236.16
2023-03-30T21:10:43.370Z,99232.58
2023-03-30T21:13:11.412Z,99224.69
2023-03-30T21:15:40.663Z,99227.59
2023-03-30T21:18:08.630Z,99229.42
2023-03-30T21:20:36.638Z,99224.36
2023-03-30T21:23:04.573Z,99225.73
2023-03-30T21:25:32.418Z,99218.10
2023-03-30T21:28:00.651Z,99211.24
2023-03-30T21:30:29.006Z,99214.15
2023-03-30T21:32:57.045Z,99214.20
2023-03-30T21:35:25.237Z,99210.48
2023-03-30T21:37:53.205Z,99214.59
2023-03-30T21:40:21.448Z,99207.65
2023-03-30T21:42:49.247Z,99210.65
2023-03-30T21:45:17.924Z,99208.08
2023-03-30T21:47:45.995Z,99202.09
2023-03-30T21:50:14.072Z,99194.08
2023-03-30T21:52:41.988Z,99195.02
2023-03-30T21:55:09.933Z,99185.64
2023-03-30T21:57:37.708Z,99184.64
2023-03-30T22:00:10.236Z,99179.01
2023-03-30T22:02:38.441Z,99174.36
2023-03-30T22:05:06.943Z,99167.05
2023-03-30T22:07:34.983Z,99163.38
2023-03-30T22:10:06.761Z,99165.10
2023-03-30T22:12:34.983Z,99163.16
2023-03-30T22:15:04.085Z,99160.61
2023-03-30T22:17:41.736Z,99163.67
2023-03-30T22:20:11.875Z,99161.69
2023-03-30T22:22:39.912Z,99155.26
2023-03-30T22:25:08.169Z,99154.05
2023-03-30T22:27:36.243Z,99149.47
2023-03-30T22:30:05.450Z,99146.48
2023-03-30T22:32:34.181Z,99145.21
2023-03-30T22:35:05.216Z,99145.09
2023-03-30T22:37:33.293Z,99144.70
2023-03-30T22:40:03.493Z,99144.43
2023-03-30T22:42:31.375Z,99140.81
2023-03-30T22:44:59.314Z,99139.64
2023-03-30T22:47:27.208Z,99136.68
2023-03-30T22:49:55.101Z,99139.95
2023-03-30T22:52:23.052Z,99135.77
2023-03-30T22:54:51.030Z,99130.95
2023-03-30T22:57:18.824Z,99131.44
2023-03-30T22:59:46.700Z,99129.65
2023-03-30T23:02:14.502Z,99132.13
2023-03-30T23:04:44.176Z,99127.71
2023-03-30T23:07:12.069Z,99120.73
2023-03-30T23:09:40.151Z,99118.20
2023-03-30T23:12:08.516Z,99119.10
2023-03-30T23:17:53.684Z,99119.47
2023-03-30T23:20:21.524Z,99121.07
2023-03-30T23:22:50.756Z,99119.66
2023-03-30T23:25:18.644Z,99112.70
2023-03-30T23:27:46.874Z,99123.13
2023-03-30T23:30:14.899Z,99125.71
2023-03-30T23:32:42.766Z,99128.92
2023-03-30T23:35:10.722Z,99129.79
2023-03-30T23:37:38.692Z,99129.45
2023-03-30T23:40:08.060Z,99126.52
2023-03-30T23:42:36.113Z,99130.29
2023-03-30T23:45:04.282Z,99135.33
2023-03-30T23:47:32.364Z,99131.68
2023-03-30T23:50:01.047Z,99133.80
2023-03-30T23:52:30.872Z,99133.90
2023-03-30T23:55:02.827Z,99133.39
2023-03-30T23:57:30.818Z,99139.50
2023-03-30T23:59:58.811Z,99139.88
